Time;durP1;ratioP1;P1;durP2;ratioP2;P2;SDS_P1;SDS_P2;PMS_P1;PMS_P2;Temp;Humidity;BMP_temperature;BMP_pressure;BME280_temperature;BME280_humidity;BME280_pressure;Samples;Min_cycle;Max_cycle;Signal;HPM_P1;HPM_P2
2021/04/17 00:02:04;;;;;;;1.30;1.00;;;21.00;38.70;;;;;;5014974;28;20453;-73
2021/04/17 00:04:30;;;;;;;1.77;1.30;;;21.00;38.70;;;;;;5008299;28;20415;-72
2021/04/17 00:06:56;;;;;;;1.52;1.40;;;21.00;38.70;;;;;;5012757;28;20698;-72
2021/04/17 00:09:25;;;;;;;1.27;1.20;;;21.10;38.80;;;;;;5010827;28;21421;-73
2021/04/17 00:11:55;;;;;;;1.30;1.20;;;21.10;38.80;;;;;;5003653;28;20434;-73
2021/04/17 00:14:22;;;;;;;3.40;1.30;;;21.10;38.80;;;;;;5021294;28;20428;-72
2021/04/17 00:16:48;;;;;;;1.60;1.50;;;21.10;38.80;;;;;;5011627;28;20477;-72
2021/04/17 00:19:15;;;;;;;1.77;1.40;;;21.10;38.80;;;;;;5010797;28;20428;-73
2021/04/17 00:21:41;;;;;;;1.60;1.50;;;21.20;38.90;;;;;;4996929;28;20421;-73
2021/04/17 00:24:07;;;;;;;1.60;1.50;;;21.20;38.90;;;;;;5010903;28;20418;-73
2021/04/17 00:26:34;;;;;;;1.90;1.80;;;21.20;38.90;;;;;;4999975;28;20420;-74
2021/04/17 00:29:01;;;;;;;1.35;1.25;;;21.10;38.80;;;;;;5010295;28;20514;-73
2021/04/17 00:31:28;;;;;;;1.70;1.60;;;21.10;38.80;;;;;;5006556;28;20415;-74
2021/04/17 00:33:54;;;;;;;2.20;1.52;;;21.10;38.80;;;;;;5003035;28;20423;-73
2021/04/17 00:36:20;;;;;;;1.50;1.50;;;21.10;38.90;;;;;;5008284;28;20539;-74
2021/04/17 00:38:46;;;;;;;1.67;1.50;;;21.00;38.80;;;;;;5035107;28;20405;-74
2021/04/17 00:41:13;;;;;;;1.80;1.70;;;21.00;38.70;;;;;;5033637;28;20408;-73
2021/04/17 00:43:39;;;;;;;3.80;2.10;;;21.00;38.70;;;;;;5040021;28;20406;-72
2021/04/17 00:46:06;;;;;;;2.10;1.67;;;21.00;38.70;;;;;;5019450;28;20415;-74
2021/04/17 00:48:32;;;;;;;1.35;1.25;;;21.00;38.80;;;;;;5004945;28;20491;-73
2021/04/17 00:50:58;;;;;;;1.60;1.50;;;21.00;38.70;;;;;;4998260;28;20420;-73
2021/04/17 00:53:24;;;;;;;1.40;1.30;;;21.00;38.70;;;;;;4994401;28;20421;-73
2021/04/17 00:55:51;;;;;;;1.83;1.60;;;21.00;38.70;;;;;;4992101;28;20418;-74
2021/04/17 00:58:17;;;;;;;2.90;1.33;;;20.90;38.70;;;;;;5006897;28;20417;-72
2021/04/17 01:00:43;;;;;;;2.08;1.23;;;21.00;38.70;;;;;;4995019;28;20436;-73
2021/04/17 01:03:14;;;;;;;1.55;1.38;;;21.00;38.70;;;;;;5004215;28;20428;-73
2021/04/17 01:05:41;;;;;;;1.75;1.20;;;21.00;38.70;;;;;;4988629;28;20437;-73
2021/04/17 01:08:10;;;;;;;3.10;1.50;;;20.90;38.70;;;;;;5006914;28;20986;-73
2021/04/17 01:10:39;;;;;;;2.50;1.55;;;21.00;38.70;;;;;;4994184;28;20427;-73
2021/04/17 01:13:05;;;;;;;2.58;1.50;;;21.00;38.70;;;;;;5021161;28;20493;-74
2021/04/17 01:15:31;;;;;;;1.73;1.63;;;21.00;38.70;;;;;;5006059;28;21026;-73
2021/04/17 01:17:58;;;;;;;3.20;1.20;;;21.00;38.70;;;;;;5006621;28;21438;-74
2021/04/17 01:20:30;;;;;;;3.20;1.30;;;21.00;38.70;;;;;;5009243;28;20416;-73
2021/04/17 01:23:02;;;;;;;2.50;1.50;;;21.00;38.70;;;;;;4995887;28;20466;-73
2021/04/17 01:25:29;;;;;;;2.63;1.60;;;21.00;38.70;;;;;;5000435;28;20419;-73
2021/04/17 01:27:56;;;;;;;1.70;1.50;;;21.00;38.70;;;;;;5008228;28;21043;-75
2021/04/17 01:30:23;;;;;;;1.52;1.42;;;21.00;38.80;;;;;;5012243;28;20494;-72
2021/04/17 01:32:49;;;;;;;1.83;1.73;;;21.00;38.70;;;;;;4995053;28;20413;-73
2021/04/17 01:35:18;;;;;;;2.47;1.20;;;21.00;38.80;;;;;;5002376;28;20773;-73
2021/04/17 01:38:03;;;;;;;1.55;1.45;;;20.90;38.70;;;;;;5001612;28;20417;-73
2021/04/17 01:40:30;;;;;;;1.70;1.60;;;20.90;38.60;;;;;;4997154;28;20415;-73
2021/04/17 01:42:58;;;;;;;1.60;1.50;;;20.90;38.70;;;;;;5008209;28;20429;-73
2021/04/17 01:45:25;;;;;;;1.53;1.43;;;20.90;38.60;;;;;;5004870;28;20424;-75
2021/04/17 01:47:53;;;;;;;1.95;1.70;;;20.90;38.70;;;;;;4995812;28;20401;-72
2021/04/17 01:50:19;;;;;;;1.27;1.27;;;20.90;38.60;;;;;;5005057;28;20408;-72
2021/04/17 01:52:45;;;;;;;1.80;1.70;;;20.90;38.60;;;;;;4998207;28;20431;-73
2021/04/17 01:55:12;;;;;;;1.50;1.40;;;20.90;38.60;;;;;;5002519;28;20417;-73
2021/04/17 01:57:39;;;;;;;2.80;1.40;;;20.90;38.70;;;;;;4979877;28;21018;-74
2021/04/17 02:00:07;;;;;;;1.90;1.80;;;20.90;38.70;;;;;;4988783;28;20468;-73
2021/04/17 02:02:33;;;;;;;1.20;1.10;;;20.90;38.70;;;;;;4996851;28;20405;-73
2021/04/17 02:04:59;;;;;;;1.40;1.30;;;20.90;38.70;;;;;;5007391;28;20923;-72
2021/04/17 02:07:26;;;;;;;2.10;1.60;;;20.90;38.70;;;;;;4993180;28;20418;-74
2021/04/17 02:09:52;;;;;;;1.65;1.40;;;21.00;38.70;;;;;;5004943;28;20428;-74
2021/04/17 02:12:18;;;;;;;1.60;1.50;;;21.00;38.70;;;;;;5010406;28;20404;-73
2021/04/17 02:14:44;;;;;;;2.00;1.40;;;21.00;38.70;;;;;;5007211;28;20425;-73
2021/04/17 02:17:14;;;;;;;1.60;1.50;;;21.00;38.70;;;;;;4999868;28;20555;-74
2021/04/17 02:19:44;;;;;;;1.45;1.35;;;21.00;38.70;;;;;;5007091;28;20423;-74
2021/04/17 02:22:10;;;;;;;2.10;1.10;;;21.00;38.70;;;;;;5007394;28;20500;-74
2021/04/17 02:24:36;;;;;;;1.80;1.40;;;21.00;38.70;;;;;;5012806;28;20435;-73
2021/04/17 02:27:03;;;;;;;1.50;1.40;;;21.00;38.70;;;;;;4999618;28;20513;-73
2021/04/17 02:29:29;;;;;;;1.57;1.30;;;21.00;38.70;;;;;;5002320;28;20722;-73
2021/04/17 02:31:55;;;;;;;3.00;1.20;;;21.00;38.80;;;;;;5000725;28;20913;-72
2021/04/17 02:34:22;;;;;;;1.80;1.20;;;21.00;38.80;;;;;;5007511;28;20999;-73
2021/04/17 02:36:48;;;;;;;1.50;1.40;;;21.00;38.80;;;;;;5006748;28;20439;-72
2021/04/17 02:39:14;;;;;;;1.40;1.10;;;21.00;38.70;;;;;;5004994;28;20669;-74
2021/04/17 02:41:40;;;;;;;2.10;1.30;;;21.00;38.70;;;;;;5002564;28;21101;-72
2021/04/17 02:44:06;;;;;;;1.20;1.20;;;21.00;38.70;;;;;;5007763;28;20948;-72
2021/04/17 02:46:33;;;;;;;1.40;1.30;;;21.00;38.70;;;;;;5016987;28;20401;-73
2021/04/17 02:48:59;;;;;;;1.40;1.30;;;21.10;38.80;;;;;;5004827;28;20463;-72
2021/04/17 02:51:26;;;;;;;1.50;1.40;;;21.10;38.80;;;;;;5011143;28;20543;-72
2021/04/17 02:53:52;;;;;;;3.63;1.50;;;21.10;38.80;;;;;;5000258;28;20481;-72
2021/04/17 02:56:18;;;;;;;2.90;1.30;;;21.10;38.80;;;;;;5017082;28;20476;-73
2021/04/17 02:58:45;;;;;;;1.55;1.45;;;21.10;38.80;;;;;;5008149;28;21282;-73
2021/04/17 03:01:11;;;;;;;1.60;1.15;;;21.20;38.90;;;;;;4998740;28;20949;-71
2021/04/17 03:03:37;;;;;;;1.70;1.60;;;21.20;38.90;;;;;;5019873;28;20416;-72
2021/04/17 03:06:04;;;;;;;1.50;1.40;;;21.20;38.90;;;;;;4993900;28;20419;-73
2021/04/17 03:08:31;;;;;;;1.40;1.30;;;21.20;38.90;;;;;;5006964;28;20805;-72
2021/04/17 03:10:57;;;;;;;1.17;1.17;;;21.20;38.90;;;;;;4996863;28;20486;-72
2021/04/17 03:13:23;;;;;;;3.40;1.40;;;21.20;38.90;;;;;;5020147;28;20427;-72
2021/04/17 03:15:49;;;;;;;1.40;1.30;;;21.10;38.90;;;;;;5004689;28;20473;-71
2021/04/17 03:18:15;;;;;;;2.00;1.48;;;21.10;38.90;;;;;;4996869;28;20850;-72
2021/04/17 03:20:41;;;;;;;1.35;1.25;;;21.10;38.80;;;;;;5013688;28;20931;-72
2021/04/17 03:23:07;;;;;;;1.33;1.20;;;21.00;38.70;;;;;;5006470;28;20997;-73
2021/04/17 03:25:34;;;;;;;1.57;1.20;;;21.00;39.10;;;;;;5003317;28;20433;-71
2021/04/17 03:28:00;;;;;;;1.20;1.20;;;21.00;38.70;;;;;;5001880;28;20835;-73
2021/04/17 03:30:28;;;;;;;1.60;1.15;;;20.90;38.70;;;;;;5008835;28;20759;-73
2021/04/17 03:32:54;;;;;;;1.20;1.10;;;21.00;38.80;;;;;;5008343;28;20495;-72
2021/04/17 03:35:21;;;;;;;1.13;1.10;;;21.00;38.70;;;;;;5004848;28;20435;-73
2021/04/17 03:37:47;;;;;;;1.60;1.30;;;21.00;38.70;;;;;;5005075;28;20482;-73
2021/04/17 03:40:13;;;;;;;2.17;1.20;;;21.00;38.70;;;;;;5010788;28;20425;-73
2021/04/17 03:42:41;;;;;;;1.58;1.48;;;21.00;38.70;;;;;;5005843;28;20425;-73
2021/04/17 03:45:08;;;;;;;1.42;1.33;;;21.00;38.80;;;;;;4990645;28;20415;-73
2021/04/17 03:47:34;;;;;;;1.40;1.30;;;21.00;38.70;;;;;;5019972;28;20470;-73
2021/04/17 03:50:00;;;;;;;1.20;1.10;;;21.00;38.70;;;;;;5006871;28;20427;-74
2021/04/17 03:52:27;;;;;;;1.25;1.15;;;21.00;38.70;;;;;;4985723;28;20423;-74
2021/04/17 03:54:53;;;;;;;1.42;1.30;;;21.00;38.70;;;;;;5008754;28;20418;-73
2021/04/17 03:57:19;;;;;;;1.80;1.20;;;21.00;38.70;;;;;;5012639;28;20411;-73
2021/04/17 03:59:46;;;;;;;1.30;1.20;;;21.00;38.80;;;;;;5005668;28;21556;-73
2021/04/17 04:02:13;;;;;;;1.20;1.10;;;21.00;38.70;;;;;;5002969;28;20636;-73
2021/04/17 04:04:39;;;;;;;1.30;1.20;;;21.00;38.70;;;;;;5019216;28;20397;-73
2021/04/17 04:07:05;;;;;;;1.20;1.10;;;21.00;38.70;;;;;;5012937;28;21119;-73
2021/04/17 04:09:31;;;;;;;1.10;1.10;;;21.00;38.80;;;;;;4997270;28;20426;-73
2021/04/17 04:11:57;;;;;;;1.75;1.00;;;20.90;38.60;;;;;;5006076;28;20425;-73
2021/04/17 04:14:24;;;;;;;2.80;1.20;;;20.90;38.70;;;;;;5012254;28;20413;-74
2021/04/17 04:16:51;;;;;;;1.67;1.30;;;20.90;38.60;;;;;;5003717;28;20419;-73
2021/04/17 04:19:17;;;;;;;1.70;1.20;;;20.80;38.50;;;;;;4995042;28;20463;-73
2021/04/17 04:21:43;;;;;;;1.38;1.27;;;20.80;38.60;;;;;;5021100;28;20942;-73
2021/04/17 04:24:09;;;;;;;1.80;1.05;;;20.80;38.80;;;;;;5008944;28;20437;-73
2021/04/17 04:26:35;;;;;;;1.48;1.38;;;20.80;38.90;;;;;;5010751;28;20409;-73
2021/04/17 04:29:01;;;;;;;1.50;1.20;;;20.80;38.90;;;;;;5007128;28;20413;-71
2021/04/17 04:31:28;;;;;;;1.17;1.13;;;20.80;39.00;;;;;;5006877;28;20420;-72
2021/04/17 04:33:54;;;;;;;2.10;1.30;;;20.70;38.50;;;;;;5001892;28;20413;-73
2021/04/17 04:36:21;;;;;;;1.35;1.25;;;20.70;38.80;;;;;;5005448;28;21046;-73
2021/04/17 04:38:47;;;;;;;1.30;1.20;;;20.70;39.00;;;;;;5011490;28;20407;-71
2021/04/17 04:41:13;;;;;;;1.33;1.23;;;20.70;39.00;;;;;;5009942;28;20840;-71
2021/04/17 04:43:39;;;;;;;1.70;0.90;;;20.80;39.20;;;;;;5007882;28;21435;-71
2021/04/17 04:46:05;;;;;;;1.30;1.20;;;20.80;39.00;;;;;;5006021;28;20429;-72
2021/04/17 04:48:31;;;;;;;1.55;1.20;;;20.80;38.60;;;;;;5016780;28;20416;-71
2021/04/17 04:50:58;;;;;;;0.90;0.90;;;20.80;38.60;;;;;;5007886;28;20427;-72
2021/04/17 04:53:24;;;;;;;3.00;1.00;;;20.80;38.60;;;;;;5008636;28;20423;-72
2021/04/17 04:55:51;;;;;;;1.20;1.20;;;20.90;38.60;;;;;;5007114;28;20431;-74
2021/04/17 04:58:17;;;;;;;1.00;1.00;;;20.90;38.70;;;;;;5001042;28;20410;-73
2021/04/17 05:00:43;;;;;;;2.30;1.40;;;20.90;38.70;;;;;;5007679;28;20430;-73
2021/04/17 05:03:10;;;;;;;1.27;1.00;;;20.90;39.40;;;;;;5003902;28;25652;-73
2021/04/17 05:05:36;;;;;;;1.35;1.20;;;20.80;38.60;;;;;;5009914;28;20412;-73
2021/04/17 05:08:04;;;;;;;1.20;1.10;;;20.80;38.60;;;;;;5006278;28;20431;-73
2021/04/17 05:10:30;;;;;;;1.00;1.00;;;20.80;38.60;;;;;;5005008;28;20427;-72
2021/04/17 05:12:56;;;;;;;1.10;1.10;;;20.80;38.50;;;;;;5005417;28;20422;-72
2021/04/17 05:15:23;;;;;;;1.20;1.20;;;20.80;38.70;;;;;;5008191;28;20424;-73
2021/04/17 05:17:49;;;;;;;1.87;1.10;;;20.80;38.80;;;;;;5018141;28;20946;-71
2021/04/17 05:20:15;;;;;;;2.38;1.10;;;20.80;38.60;;;;;;5006644;28;20459;-71
2021/04/17 05:22:41;;;;;;;1.40;1.10;;;20.80;38.50;;;;;;4999206;28;20428;-72
2021/04/17 05:25:09;;;;;;;1.23;1.13;;;20.80;38.50;;;;;;4984754;28;20879;-71
2021/04/17 05:27:35;;;;;;;1.30;1.20;;;20.80;38.60;;;;;;4999462;28;20413;-72
2021/04/17 05:30:01;;;;;;;1.60;1.10;;;20.80;38.50;;;;;;5003100;28;20444;-72
2021/04/17 05:32:28;;;;;;;1.40;1.30;;;20.80;38.50;;;;;;4997348;28;20416;-72
2021/04/17 05:34:54;;;;;;;1.20;1.10;;;20.80;38.50;;;;;;4997156;28;20409;-71
2021/04/17 05:37:20;;;;;;;1.70;1.13;;;20.80;38.60;;;;;;4990307;28;20490;-72
2021/04/17 05:39:47;;;;;;;1.20;1.10;;;20.80;38.60;;;;;;4995850;28;20505;-71
2021/04/17 05:42:14;;;;;;;1.10;0.98;;;20.90;38.70;;;;;;4992357;28;20430;-71
2021/04/17 05:44:40;;;;;;;1.00;0.90;;;20.90;38.70;;;;;;4988683;28;20427;-73
2021/04/17 05:47:06;;;;;;;2.00;1.40;;;20.80;38.50;;;;;;4998743;28;20424;-73
2021/04/17 05:49:32;;;;;;;1.05;0.95;;;20.80;38.60;;;;;;4985312;28;20504;-73
2021/04/17 05:51:58;;;;;;;1.00;1.00;;;20.80;38.90;;;;;;5000304;28;20419;-72
2021/04/17 05:54:24;;;;;;;0.98;0.98;;;20.80;38.90;;;;;;4999981;28;20409;-72
2021/04/17 05:56:51;;;;;;;1.30;1.10;;;20.80;38.60;;;;;;4995954;28;21040;-73
2021/04/17 05:59:17;;;;;;;1.20;1.10;;;20.80;38.60;;;;;;4992758;28;20438;-72
2021/04/17 06:01:44;;;;;;;2.10;1.07;;;20.80;38.50;;;;;;5001911;28;20465;-73
2021/04/17 06:04:10;;;;;;;0.80;0.80;;;20.80;38.50;;;;;;5002048;28;20436;-72
2021/04/17 06:06:36;;;;;;;1.17;1.08;;;20.90;38.60;;;;;;4996029;28;20527;-72
2021/04/17 06:09:02;;;;;;;1.20;1.00;;;20.90;38.70;;;;;;4995508;28;20412;-72
2021/04/17 06:11:28;;;;;;;1.00;0.90;;;20.90;38.60;;;;;;4990893;28;20417;-72
2021/04/17 06:13:54;;;;;;;1.10;1.00;;;20.90;38.70;;;;;;4994491;28;20446;-73
2021/04/17 06:16:21;;;;;;;1.27;1.20;;;20.90;38.70;;;;;;4995896;28;20467;-73
2021/04/17 06:18:48;;;;;;;1.20;1.08;;;20.90;38.60;;;;;;4997917;28;20411;-72
2021/04/17 06:21:14;;;;;;;1.23;1.10;;;21.00;38.70;;;;;;4995980;28;20413;-72
2021/04/17 06:23:41;;;;;;;1.20;1.10;;;21.00;38.70;;;;;;4993560;28;20428;-72
2021/04/17 06:26:07;;;;;;;1.00;1.00;;;21.00;39.50;;;;;;5001819;28;20414;-72
2021/04/17 06:28:33;;;;;;;1.00;0.90;;;21.00;38.70;;;;;;5004490;28;20427;-71
2021/04/17 06:31:00;;;;;;;1.13;0.90;;;21.00;38.70;;;;;;5005550;28;20429;-71
2021/04/17 06:33:27;;;;;;;1.40;1.10;;;21.00;38.70;;;;;;5008786;28;20462;-71
2021/04/17 06:35:53;;;;;;;2.00;1.00;;;21.10;38.80;;;;;;5008893;28;20407;-71
2021/04/17 06:38:19;;;;;;;1.20;1.10;;;21.10;38.80;;;;;;5001746;28;20411;-71
2021/04/17 06:40:45;;;;;;;2.10;1.00;;;21.10;38.80;;;;;;5006202;28;20438;-71
2021/04/17 06:43:11;;;;;;;1.00;0.90;;;21.10;38.80;;;;;;5006692;28;20421;-72
2021/04/17 06:45:40;;;;;;;1.42;1.20;;;21.10;38.80;;;;;;5006254;28;20464;-71
2021/04/17 06:48:07;;;;;;;1.20;0.90;;;21.20;38.90;;;;;;5007759;28;20416;-71
2021/04/17 06:50:35;;;;;;;1.00;0.90;;;21.20;38.90;;;;;;5000708;28;21047;-71
2021/04/17 06:53:01;;;;;;;2.70;1.30;;;21.20;38.90;;;;;;5012484;28;20432;-72
2021/04/17 06:55:28;;;;;;;1.70;1.23;;;21.30;39.00;;;;;;5004422;28;20409;-71
2021/04/17 06:57:54;;;;;;;1.35;1.20;;;21.30;39.00;;;;;;5009728;28;20421;-70
2021/04/17 07:00:21;;;;;;;1.50;0.90;;;21.30;39.10;;;;;;5012280;28;20497;-72
2021/04/17 07:02:47;;;;;;;1.30;1.20;;;21.30;39.00;;;;;;5005849;28;20559;-73
2021/04/17 07:05:14;;;;;;;1.10;0.80;;;21.30;39.00;;;;;;5008200;28;20418;-72
2021/04/17 07:07:41;;;;;;;1.00;1.00;;;21.30;39.00;;;;;;4993676;28;20405;-72
2021/04/17 07:10:08;;;;;;;1.20;1.20;;;21.30;39.00;;;;;;5000781;28;20439;-71
2021/04/17 07:12:34;;;;;;;1.73;1.00;;;21.30;39.00;;;;;;4979538;28;20428;-73
2021/04/17 07:15:03;;;;;;;1.30;0.97;;;21.20;38.90;;;;;;5005264;28;21229;-73
2021/04/17 07:17:30;;;;;;;0.90;0.90;;;21.20;38.90;;;;;;5009551;28;21471;-70
2021/04/17 07:19:56;;;;;;;1.20;1.10;;;21.20;38.90;;;;;;5008903;28;20957;-72
2021/04/17 07:22:23;;;;;;;1.70;1.20;;;21.20;38.90;;;;;;5000504;28;20787;-73
2021/04/17 07:24:51;;;;;;;1.10;1.10;;;21.20;38.90;;;;;;5003036;28;20422;-73
2021/04/17 07:27:31;;;;;;;1.50;0.90;;;21.20;38.90;;;;;;5007585;28;20446;-71
2021/04/17 07:29:57;;;;;;;1.60;1.30;;;21.30;39.00;;;;;;5005184;28;20422;-72
2021/04/17 07:32:23;;;;;;;1.30;1.20;;;21.30;39.00;;;;;;5003835;28;20422;-73
2021/04/17 07:35:04;;;;;;;1.08;0.98;;;21.30;39.00;;;;;;5002703;28;20913;-72
2021/04/17 07:37:33;;;;;;;1.50;1.40;;;21.30;39.00;;;;;;4996629;28;20416;-72
2021/04/17 07:40:18;;;;;;;1.02;0.93;;;21.30;39.00;;;;;;5002485;28;20905;-72
2021/04/17 07:42:45;;;;;;;1.02;1.00;;;21.30;39.00;;;;;;5001453;28;20436;-73
2021/04/17 07:45:21;;;;;;;1.70;1.20;;;21.30;39.00;;;;;;5010554;28;20455;-73
2021/04/17 07:47:47;;;;;;;2.10;1.00;;;21.30;39.00;;;;;;5008682;28;20459;-72
2021/04/17 07:50:14;;;;;;;0.90;0.90;;;21.30;39.00;;;;;;4994171;28;20415;-75
2021/04/17 07:52:40;;;;;;;1.10;1.00;;;21.20;38.90;;;;;;5022958;28;20419;-73
2021/04/17 07:55:08;;;;;;;2.20;1.38;;;21.20;38.90;;;;;;5006717;28;20439;-73
2021/04/17 07:57:35;;;;;;;1.40;0.83;;;21.20;38.90;;;;;;5002725;28;20412;-73
2021/04/17 08:00:03;;;;;;;1.42;1.10;;;21.20;38.90;;;;;;5008174;28;20407;-74
2021/04/17 08:02:29;;;;;;;1.80;0.70;;;21.20;38.90;;;;;;4987250;28;20504;-74
2021/04/17 08:04:55;;;;;;;1.10;1.00;;;21.20;38.90;;;;;;5018391;28;20907;-73
2021/04/17 08:07:22;;;;;;;0.95;0.80;;;21.20;38.90;;;;;;5027292;28;20404;-73
2021/04/17 08:09:48;;;;;;;0.98;0.93;;;21.20;38.90;;;;;;5020915;28;20524;-74
2021/04/17 08:12:15;;;;;;;1.38;0.90;;;21.20;38.90;;;;;;5009678;28;20413;-72
2021/04/17 08:14:41;;;;;;;1.40;1.30;;;21.20;38.90;;;;;;4998383;28;20491;-72
2021/04/17 08:17:07;;;;;;;0.90;0.90;;;21.30;39.00;;;;;;5006087;28;20415;-73
2021/04/17 08:19:33;;;;;;;1.00;0.93;;;21.30;39.00;;;;;;5008618;28;20413;-73
2021/04/17 08:22:00;;;;;;;0.93;0.90;;;21.30;39.00;;;;;;5009715;28;20415;-73
2021/04/17 08:24:27;;;;;;;0.90;0.80;;;21.30;39.00;;;;;;5002324;28;20422;-72
2021/04/17 08:26:53;;;;;;;1.05;0.95;;;21.30;39.00;;;;;;5005184;28;20422;-73
2021/04/17 08:29:42;;;;;;;1.92;1.02;;;21.30;39.00;;;;;;5007807;28;20965;-73
2021/04/17 08:32:25;;;;;;;1.60;1.10;;;21.30;39.00;;;;;;5008464;28;20421;-73
2021/04/17 08:35:01;;;;;;;0.95;0.95;;;21.30;39.00;;;;;;5006888;28;20418;-73
2021/04/17 08:37:27;;;;;;;1.20;1.00;;;21.30;39.00;;;;;;5005800;28;20422;-73
2021/04/17 08:39:54;;;;;;;1.50;1.10;;;21.20;38.90;;;;;;5007810;28;20465;-74
2021/04/17 08:42:39;;;;;;;0.80;0.80;;;21.20;38.90;;;;;;5000745;28;20444;-73
2021/04/17 08:45:10;;;;;;;1.10;1.00;;;21.20;38.90;;;;;;5003428;28;20414;-73
2021/04/17 08:47:47;;;;;;;2.05;1.05;;;21.20;38.90;;;;;;5004723;28;20422;-73
2021/04/17 08:50:40;;;;;;;0.70;0.70;;;21.20;38.90;;;;;;5009363;28;20473;-73
2021/04/17 08:53:11;;;;;;;1.00;1.00;;;21.20;38.90;;;;;;4995986;28;20416;-73
2021/04/17 08:55:47;;;;;;;1.10;1.00;;;21.30;39.00;;;;;;5007218;28;20953;-73
2021/04/17 08:58:15;;;;;;;1.00;0.90;;;21.30;39.00;;;;;;5008471;28;20834;-72
2021/04/17 09:00:43;;;;;;;1.23;1.00;;;21.30;39.00;;;;;;5006156;28;20503;-72
2021/04/17 09:03:09;;;;;;;1.67;0.90;;;21.30;39.00;;;;;;5006632;28;20440;-73
2021/04/17 09:05:43;;;;;;;2.80;1.10;;;21.30;39.00;;;;;;5009042;28;20479;-73
2021/04/17 09:08:14;;;;;;;1.10;1.10;;;21.30;39.00;;;;;;5006738;28;20425;-73
2021/04/17 09:10:40;;;;;;;1.73;0.95;;;21.40;39.10;;;;;;5008806;28;22026;-73
2021/04/17 09:13:34;;;;;;;1.50;0.90;;;21.30;39.00;;;;;;5001552;28;20434;-74
2021/04/17 09:16:05;;;;;;;1.10;1.00;;;21.30;39.00;;;;;;5017996;28;20453;-73
2021/04/17 09:18:43;;;;;;;1.25;0.90;;;21.30;39.00;;;;;;5027375;28;20414;-73
2021/04/17 09:21:34;;;;;;;2.60;0.97;;;21.30;39.00;;;;;;4972580;28;20424;-73
2021/04/17 09:24:00;;;;;;;0.73;0.73;;;21.30;39.00;;;;;;4995900;28;20428;-72
2021/04/17 09:26:42;;;;;;;0.85;0.80;;;21.30;39.00;;;;;;5004981;28;20424;-73
2021/04/17 09:29:25;;;;;;;1.20;1.10;;;21.30;39.00;;;;;;5002904;28;20420;-72
2021/04/17 09:31:56;;;;;;;0.80;0.80;;;21.30;39.00;;;;;;4981311;28;20912;-72
2021/04/17 09:34:22;;;;;;;1.90;0.90;;;21.30;39.00;;;;;;5002684;28;21386;-73
2021/04/17 09:36:51;;;;;;;1.02;1.02;;;21.30;39.00;;;;;;5006751;28;20429;-72
2021/04/17 09:39:28;;;;;;;0.90;0.90;;;21.30;39.00;;;;;;5006562;28;20434;-72
2021/04/17 09:41:56;;;;;;;2.70;1.00;;;21.30;39.00;;;;;;4995726;28;20433;-73
2021/04/17 09:44:22;;;;;;;3.85;0.90;;;21.30;39.00;;;;;;5007615;28;20426;-73
2021/04/17 09:47:08;;;;;;;2.70;1.27;;;21.30;39.80;;;;;;4995846;28;20415;-73
2021/04/17 09:49:36;;;;;;;1.33;1.23;;;21.30;39.00;;;;;;5004078;28;20420;-74
2021/04/17 09:52:02;;;;;;;1.00;1.00;;;21.30;39.00;;;;;;5007756;28;20548;-71
2021/04/17 09:54:28;;;;;;;1.20;0.98;;;21.30;39.00;;;;;;5007236;28;21165;-72
2021/04/17 09:56:55;;;;;;;0.70;0.70;;;21.20;38.90;;;;;;4997682;28;20982;-74
2021/04/17 09:59:21;;;;;;;0.93;0.90;;;21.20;38.90;;;;;;5017406;28;20418;-73
2021/04/17 10:01:51;;;;;;;0.88;0.88;;;21.20;38.90;;;;;;5005375;28;20434;-73
2021/04/17 10:04:17;;;;;;;1.10;1.00;;;21.20;38.90;;;;;;5007528;28;20415;-72
2021/04/17 10:06:44;;;;;;;1.30;0.90;;;21.20;38.90;;;;;;5005033;28;20476;-73
2021/04/17 10:09:11;;;;;;;1.13;1.02;;;21.20;38.90;;;;;;5007076;28;20928;-72
2021/04/17 10:11:38;;;;;;;0.90;0.90;;;21.20;38.90;;;;;;5006485;28;20983;-72
2021/04/17 10:14:05;;;;;;;1.00;1.00;;;21.20;38.90;;;;;;5001212;28;20423;-73
2021/04/17 10:16:32;;;;;;;0.80;0.80;;;21.20;38.90;;;;;;5013339;28;20840;-72
2021/04/17 10:18:58;;;;;;;1.08;0.98;;;21.20;38.90;;;;;;5005766;28;20419;-72
2021/04/17 10:21:26;;;;;;;1.13;0.95;;;21.20;38.90;;;;;;5005353;28;20429;-73
2021/04/17 10:24:18;;;;;;;0.90;0.90;;;21.20;38.90;;;;;;4998272;28;20428;-72
2021/04/17 10:26:55;;;;;;;2.00;1.08;;;21.20;38.90;;;;;;5008266;28;20400;-73
2021/04/17 10:29:35;;;;;;;3.08;0.98;;;21.30;39.00;;;;;;5025902;28;20411;-73
2021/04/17 10:32:02;;;;;;;1.60;0.90;;;21.30;39.00;;;;;;4984566;28;20430;-73
2021/04/17 10:34:29;;;;;;;0.90;0.90;;;21.30;39.00;;;;;;4986439;28;20467;-72
2021/04/17 10:36:57;;;;;;;1.50;1.00;;;21.30;39.00;;;;;;4979699;28;20440;-73
2021/04/17 10:39:23;;;;;;;1.17;1.08;;;21.30;39.00;;;;;;4995725;28;20829;-72
2021/04/17 10:41:57;;;;;;;0.90;0.90;;;21.30;39.00;;;;;;4989769;28;20908;-72
2021/04/17 10:44:23;;;;;;;1.23;1.00;;;21.30;39.00;;;;;;4991771;28;20411;-73
2021/04/17 10:46:49;;;;;;;0.80;0.80;;;21.30;39.00;;;;;;4993131;28;20545;-73
2021/04/17 10:49:26;;;;;;;1.40;1.08;;;21.30;39.00;;;;;;4998126;28;20471;-73
2021/04/17 10:51:52;;;;;;;0.93;0.82;;;21.20;38.90;;;;;;4994325;28;20416;-73
2021/04/17 10:54:19;;;;;;;1.15;0.80;;;21.20;38.90;;;;;;5005811;28;20415;-72
2021/04/17 10:56:55;;;;;;;1.10;1.00;;;21.20;38.90;;;;;;5008145;28;20411;-73
2021/04/17 10:59:21;;;;;;;2.00;1.10;;;21.30;39.00;;;;;;5005901;28;20411;-76
2021/04/17 11:01:47;;;;;;;1.30;1.20;;;21.30;39.00;;;;;;5005824;28;20422;-74
2021/04/17 11:04:14;;;;;;;1.25;0.93;;;21.30;39.00;;;;;;5005931;28;20420;-73
2021/04/17 11:06:45;;;;;;;0.70;0.70;;;21.30;39.00;;;;;;5003645;28;20416;-74
2021/04/17 11:09:12;;;;;;;1.02;0.90;;;21.30;39.00;;;;;;5007031;28;20467;-72
2021/04/17 11:11:51;;;;;;;0.80;0.80;;;21.30;39.00;;;;;;5004894;28;20425;-73
2021/04/17 11:14:19;;;;;;;1.40;0.90;;;21.20;38.90;;;;;;4990545;28;20418;-72
2021/04/17 11:16:46;;;;;;;0.90;0.90;;;21.20;38.90;;;;;;5009762;28;21152;-72
2021/04/17 11:19:23;;;;;;;1.00;0.90;;;21.20;39.20;;;;;;5005468;28;20432;-74
2021/04/17 11:22:04;;;;;;;1.30;1.00;;;21.20;39.70;;;;;;4985203;28;20532;-73
2021/04/17 11:24:31;;;;;;;0.93;0.80;;;21.20;39.20;;;;;;4999629;28;20829;-72
2021/04/17 11:26:58;;;;;;;0.90;0.90;;;21.20;39.40;;;;;;4993659;28;21045;-72
2021/04/17 11:29:24;;;;;;;0.88;0.75;;;21.20;39.40;;;;;;5008753;28;20435;-72
2021/04/17 11:31:50;;;;;;;0.90;0.90;;;21.20;39.60;;;;;;4979333;28;20425;-73
2021/04/17 11:34:16;;;;;;;0.80;0.80;;;21.20;39.70;;;;;;4996454;28;20423;-73
2021/04/17 11:36:42;;;;;;;1.43;0.90;;;21.10;39.50;;;;;;4989826;28;20421;-74
2021/04/17 11:39:09;;;;;;;1.90;0.90;;;21.20;39.50;;;;;;5002685;28;20421;-73
2021/04/17 11:41:35;;;;;;;0.70;0.70;;;21.20;39.50;;;;;;4998918;28;20431;-74
2021/04/17 11:44:02;;;;;;;0.90;0.90;;;21.20;39.60;;;;;;5008818;28;20421;-73
2021/04/17 11:46:28;;;;;;;1.20;0.80;;;21.20;39.60;;;;;;5006142;28;20529;-73
2021/04/17 11:48:54;;;;;;;0.80;0.80;;;21.20;39.70;;;;;;5000396;28;20497;-73
2021/04/17 11:51:21;;;;;;;0.70;0.70;;;21.20;39.60;;;;;;4994601;28;20481;-73
2021/04/17 11:53:47;;;;;;;0.60;0.60;;;21.20;39.60;;;;;;4992885;28;20828;-74
2021/04/17 11:56:13;;;;;;;1.30;0.70;;;21.20;39.30;;;;;;5010388;28;20417;-74
2021/04/17 11:58:39;;;;;;;1.07;0.80;;;21.30;39.40;;;;;;5008007;28;20424;-73
2021/04/17 12:01:06;;;;;;;0.80;0.80;;;21.30;39.00;;;;;;4999656;28;20466;-73
2021/04/17 12:03:32;;;;;;;0.70;0.70;;;21.30;39.00;;;;;;4981201;28;20457;-73
2021/04/17 12:05:58;;;;;;;1.70;0.80;;;21.30;39.00;;;;;;4976596;28;20480;-73
2021/04/17 12:08:25;;;;;;;0.80;0.80;;;21.30;39.00;;;;;;5003725;28;20411;-74
2021/04/17 12:10:51;;;;;;;1.00;0.70;;;21.20;39.30;;;;;;4988628;28;20872;-73
2021/04/17 12:13:17;;;;;;;0.60;0.60;;;21.20;39.30;;;;;;5020401;28;20415;-73
2021/04/17 12:15:45;;;;;;;0.70;0.70;;;21.30;39.10;;;;;;5005008;28;20419;-74
2021/04/17 12:18:12;;;;;;;0.90;0.80;;;21.30;39.80;;;;;;5006667;28;20563;-73
2021/04/17 12:20:39;;;;;;;0.77;0.77;;;21.30;39.00;;;;;;5004473;28;20432;-73
2021/04/17 12:23:05;;;;;;;0.80;0.65;;;21.30;39.00;;;;;;5005494;28;20428;-72
2021/04/17 12:25:31;;;;;;;1.10;1.00;;;21.30;39.00;;;;;;5004273;28;20420;-74
2021/04/17 12:27:57;;;;;;;0.70;0.70;;;21.30;39.00;;;;;;5010244;28;20430;-72
2021/04/17 12:30:24;;;;;;;0.73;0.73;;;21.40;39.10;;;;;;5007465;28;20422;-73
2021/04/17 12:32:51;;;;;;;0.90;0.90;;;21.40;39.10;;;;;;5007271;28;20428;-72
2021/04/17 12:35:20;;;;;;;0.60;0.60;;;21.40;39.10;;;;;;5008805;28;20423;-71
2021/04/17 12:37:47;;;;;;;0.77;0.77;;;21.40;39.10;;;;;;5009441;28;20994;-73
2021/04/17 12:40:13;;;;;;;1.00;0.70;;;21.40;39.10;;;;;;5006606;28;21097;-72
2021/04/17 12:42:39;;;;;;;0.60;0.50;;;21.30;39.00;;;;;;5008800;28;20431;-73
2021/04/17 12:45:06;;;;;;;0.57;0.57;;;21.30;39.00;;;;;;4996120;28;20447;-73
2021/04/17 12:47:33;;;;;;;0.70;0.70;;;21.30;39.30;;;;;;4992251;28;20407;-74
2021/04/17 12:49:59;;;;;;;0.80;0.80;;;21.30;39.40;;;;;;5017886;28;20415;-73
2021/04/17 12:52:26;;;;;;;0.80;0.70;;;21.30;39.40;;;;;;5006649;28;20418;-74